createdAt,value
2023-04-20T00:02:24.121Z,100635.40
2023-04-20T00:04:53.031Z,100634.58
2023-04-20T00:07:46.886Z,100638.45
2023-04-20T00:10:25.834Z,100642.34
2023-04-20T00:12:56.413Z,100636.80
2023-04-20T00:15:45.497Z,100639.30
2023-04-20T00:19:19.192Z,100633.24
2023-04-20T00:31:41.483Z,100636.02
2023-04-20T00:34:51.173Z,100637.21
2023-04-20T00:38:05.652Z,100638.48
2023-04-20T00:40:52.724Z,100627.55
2023-04-20T00:43:23.004Z,100625.17
2023-04-20T00:46:20.149Z,100628.91
2023-04-20T00:53:32.425Z,100629.86
2023-04-20T00:57:01.204Z,100623.83
2023-04-20T00:59:54.127Z,100623.35
2023-04-20T01:02:23.830Z,100626.95
2023-04-20T01:04:58.231Z,100627.50
2023-04-20T01:07:31.494Z,100622.97
2023-04-20T01:10:12.015Z,100622.40
2023-04-20T01:12:43.010Z,100622.61
2023-04-20T01:15:23.960Z,100620.20
2023-04-20T01:17:53.350Z,100616.54
2023-04-20T01:20:29.722Z,100612.23
2023-04-20T01:23:00.899Z,100609.05
2023-04-20T01:25:36.016Z,100607.05
2023-04-20T01:28:08.130Z,100610.51
2023-04-20T01:43:57.495Z,100609.40
2023-04-20T01:50:50.505Z,100611.18
2023-04-20T01:53:56.212Z,100612.17
2023-04-20T02:00:31.225Z,100606.30
2023-04-20T03:12:54.339Z,100621.29
2023-04-20T03:16:19.505Z,100624.46
2023-04-20T03:19:36.318Z,100623.73
2023-04-20T03:22:47.481Z,100628.57
2023-04-20T03:32:39.285Z,100645.25
2023-04-20T03:39:56.882Z,100650.03
2023-04-20T03:42:33.827Z,100650.11
2023-04-20T03:45:13.788Z,100654.05
2023-04-20T03:47:46.506Z,100653.36
2023-04-20T03:50:16.163Z,100656.84
2023-04-20T03:52:47.828Z,100660.09
2023-04-20T03:55:26.267Z,100659.25
2023-04-20T03:58:11.999Z,100662.64
2023-04-20T04:00:52.104Z,100664.21
2023-04-20T04:03:32.635Z,100667.84
2023-04-20T04:06:21.927Z,100669.23
2023-04-20T04:08:52.636Z,100674.14
2023-04-20T04:11:22.402Z,100671.48
2023-04-20T04:13:52.617Z,100671.08
2023-04-20T04:16:22.907Z,100670.34
2023-04-20T04:18:55.673Z,100670.79
2023-04-20T04:21:27.148Z,100669.29
2023-04-20T04:23:58.820Z,100669.13
2023-04-20T04:26:58.518Z,100673.21
2023-04-20T04:29:29.946Z,100676.34
2023-04-20T04:32:05.999Z,100678.60
2023-04-20T04:34:40.636Z,100681.51
2023-04-20T04:37:10.199Z,100680.16
2023-04-20T04:39:46.762Z,100684.70
2023-04-20T04:42:23.390Z,100689.30
2023-04-20T04:44:53.265Z,100687.23
2023-04-20T04:47:29.435Z,100689.45
2023-04-20T04:50:00.411Z,100694.48
2023-04-20T04:52:29.747Z,100696.88
2023-04-20T04:54:58.254Z,100698.04
2023-04-20T04:57:28.984Z,100699.23
2023-04-20T04:59:57.992Z,100700.25
2023-04-20T05:02:28.313Z,100696.16
2023-04-20T05:04:58.189Z,100698.55
2023-04-20T05:07:29.553Z,100697.39
2023-04-20T05:10:25.019Z,100702.64
2023-04-20T05:14:02.500Z,100701.21
2023-04-20T05:17:43.863Z,100706.30
2023-04-20T05:21:07.651Z,100709.73
2023-04-20T05:23:39.983Z,100709.85
2023-04-20T05:27:07.719Z,100708.54
2023-04-20T05:31:01.096Z,100705.27
2023-04-20T05:33:58.775Z,100708.75
2023-04-20T05:40:39.238Z,100718.39
2023-04-20T05:44:22.978Z,100716.77
2023-04-20T05:50:53.369Z,100720.46
2023-04-20T05:57:18.413Z,100721.50
2023-04-20T06:04:45.837Z,100725.77
2023-04-20T06:11:55.057Z,100739.89
2023-04-20T06:18:16.713Z,100743.16
2023-04-20T06:20:52.150Z,100746.55
2023-04-20T06:23:20.389Z,100747.02
2023-04-20T06:25:55.070Z,100746.67
2023-04-20T06:28:25.899Z,100750.27
2023-04-20T06:30:55.157Z,100753.39
2023-04-20T06:33:24.470Z,100751.80
2023-04-20T06:35:54.280Z,100753.88
2023-04-20T06:38:26.273Z,100755.92
2023-04-20T06:41:01.814Z,100756.27
2023-04-20T06:43:31.533Z,100757.77
2023-04-20T06:46:00.017Z,100757.20
2023-04-20T06:48:32.637Z,100760.10
2023-04-20T06:51:05.301Z,100756.80
2023-04-20T06:53:33.784Z,100749.04
2023-04-20T06:56:03.795Z,100755.06
2023-04-20T06:58:31.842Z,100760.84
2023-04-20T07:01:00.331Z,100760.23
2023-04-20T07:03:37.994Z,100764.17
2023-04-20T07:06:07.051Z,100765.50
2023-04-20T07:08:37.592Z,100760.93
2023-04-20T07:11:08.947Z,100759.25
2023-04-20T07:13:39.235Z,100761.18
2023-04-20T07:16:09.842Z,100762.91
2023-04-20T07:18:37.996Z,100760.72
2023-04-20T07:21:11.533Z,100761.84
2023-04-20T07:23:44.276Z,100759.90
2023-04-20T07:26:15.736Z,100759.85
2023-04-20T07:28:45.901Z,100756.73
2023-04-20T07:31:15.054Z,100757.08
2023-04-20T07:33:44.747Z,100752.63
2023-04-20T07:36:15.009Z,100745.95
2023-04-20T07:38:52.930Z,100745.45
2023-04-20T07:41:24.242Z,100741.73
2023-04-20T07:44:05.575Z,100750.15
2023-04-20T07:46:38.463Z,100754.69
2023-04-20T07:49:07.929Z,100753.63
2023-04-20T07:51:38.641Z,100757.90
2023-04-20T07:54:06.815Z,100764.56
2023-04-20T07:56:39.380Z,100760.43
2023-04-20T07:59:28.656Z,100760.50
2023-04-20T08:02:03.620Z,100757.23
2023-04-20T08:04:36.831Z,100753.77
2023-04-20T08:07:10.697Z,100757.21
2023-04-20T08:09:38.563Z,100760.77
2023-04-20T08:12:09.351Z,100764.09
2023-04-20T08:17:46.415Z,100762.89
2023-04-20T08:20:25.314Z,100765.54
2023-04-20T08:22:54.130Z,100767.94
2023-04-20T08:25:26.238Z,100767.88
2023-04-20T08:27:56.665Z,100769.20
2023-04-20T08:30:28.162Z,100772.35
2023-04-20T08:32:56.938Z,100766.17
2023-04-20T08:35:45.957Z,100772.84
2023-04-20T08:38:23.735Z,100776.70
2023-04-20T08:41:01.954Z,100776.07
2023-04-20T08:43:51.188Z,100775.18
2023-04-20T08:46:22.793Z,100772.58
2023-04-20T08:49:00.295Z,100775.65
2023-04-20T08:51:29.334Z,100774.22
2023-04-20T08:54:26.020Z,100773.16
2023-04-20T08:57:37.687Z,100769.44
2023-04-20T09:01:05.805Z,100769.70
2023-04-20T09:04:57.642Z,100768.40
2023-04-20T09:08:29.415Z,100766.64
2023-04-20T09:11:18.418Z,100760.91
2023-04-20T09:14:09.881Z,100757.83
2023-04-20T09:17:09.641Z,100762.02
2023-04-20T09:20:07.526Z,100756.63
2023-04-20T09:23:01.782Z,100753.36
2023-04-20T09:25:54.296Z,100756.84
2023-04-20T09:29:21.374Z,100755.73
2023-04-20T09:32:29.231Z,100754.69
2023-04-20T09:35:58.247Z,100749.77
2023-04-20T09:39:05.202Z,100748.02
2023-04-20T09:42:39.635Z,100752.15
2023-04-20T09:49:22.287Z,100753.56
2023-04-20T09:52:47.690Z,100749.54
2023-04-20T09:56:27.895Z,100752.52
2023-04-20T10:00:28.937Z,100752.63
2023-04-20T10:03:34.772Z,100738.79
2023-04-20T10:06:50.779Z,100746.96
2023-04-20T10:09:43.005Z,100745.33
2023-04-20T10:13:33.100Z,100738.45
2023-04-20T10:16:47.795Z,100743.05
2023-04-20T10:19:32.736Z,100738.55
2023-04-20T10:23:20.279Z,100739.63
2023-04-20T10:29:51.550Z,100718.58
2023-04-20T10:32:34.511Z,100726.11
2023-04-20T10:38:40.344Z,100724.35
2023-04-20T10:41:28.275Z,100734.95
2023-04-20T10:44:09.511Z,100734.58
2023-04-20T10:46:38.099Z,100726.08
2023-04-20T10:49:27.071Z,100718.20
2023-04-20T10:52:36.781Z,100723.58
2023-04-20T10:55:25.519Z,100721.57
2023-04-20T11:08:33.149Z,100715.53
2023-04-20T11:11:45.346Z,100713.96
2023-04-20T11:14:55.855Z,100710.90
2023-04-20T11:17:33.365Z,100714.91
2023-04-20T11:20:18.299Z,100721.80
2023-04-20T11:23:00.915Z,100724.82
2023-04-20T11:25:30.623Z,100721.35
2023-04-20T11:28:10.119Z,100724.01
2023-04-20T11:30:42.649Z,100714.06
2023-04-20T11:33:19.445Z,100712.05
2023-04-20T11:35:49.661Z,100708.80
2023-04-20T11:38:26.035Z,100720.73
2023-04-20T11:40:57.221Z,100717.45
2023-04-20T11:43:27.972Z,100721.64
2023-04-20T11:45:57.365Z,100716.17
2023-04-20T11:48:31.198Z,100716.55
2023-04-20T11:50:59.927Z,100720.74
2023-04-20T11:53:32.531Z,100718.04
2023-04-20T11:56:04.112Z,100710.13
2023-04-20T11:58:33.760Z,100712.63
2023-04-20T12:01:23.536Z,100705.88
2023-04-20T12:03:53.092Z,100700.86
2023-04-20T12:06:22.307Z,100698.39
2023-04-20T12:08:53.636Z,100702.83
2023-04-20T12:11:24.621Z,100704.02
2023-04-20T12:13:54.831Z,100707.12
2023-04-20T12:16:25.645Z,100704.85
2023-04-20T12:18:56.912Z,100704.55
2023-04-20T12:21:27.918Z,100704.58
2023-04-20T12:23:57.116Z,100710.19
2023-04-20T12:26:37.863Z,100708.44
2023-04-20T12:29:09.595Z,100704.13
2023-04-20T12:31:40.841Z,100697.47
2023-04-20T12:34:08.853Z,100692.61
2023-04-20T12:36:40.130Z,100687.73
2023-04-20T12:39:12.358Z,100686.92
2023-04-20T12:41:44.358Z,100688.47
2023-04-20T12:44:14.755Z,100696.61
2023-04-20T12:46:45.777Z,100696.59
2023-04-20T12:49:13.871Z,100695.77
2023-04-20T12:51:43.895Z,100692.60
2023-04-20T12:54:13.727Z,100697.35
2023-04-20T12:56:45.282Z,100693.05
2023-04-20T12:59:15.340Z,100685.13
2023-04-20T13:01:45.957Z,100674.35
2023-04-20T13:04:17.142Z,100668.75
2023-04-20T13:06:48.897Z,100659.86
2023-04-20T13:09:20.413Z,100663.40
2023-04-20T13:11:57.583Z,100662.58
2023-04-20T13:14:27.509Z,100657.80
2023-04-20T13:17:02.479Z,100663.39
2023-04-20T13:19:34.372Z,100657.95
2023-04-20T13:22:02.830Z,100677.77
2023-04-20T13:24:32.042Z,100681.78
2023-04-20T13:27:02.240Z,100682.19
2023-04-20T13:29:35.379Z,100680.91
2023-04-20T13:32:03.831Z,100679.33
2023-04-20T13:34:33.312Z,100677.02
2023-04-20T13:37:01.849Z,100677.73
2023-04-20T13:39:32.020Z,100678.36
2023-04-20T13:42:01.427Z,100678.52
2023-04-20T13:44:31.676Z,100681.54
2023-04-20T13:47:01.071Z,100685.48
2023-04-20T13:49:29.106Z,100690.33
2023-04-20T13:51:57.906Z,100686.95
2023-04-20T13:54:30.143Z,100684.50
2023-04-20T13:56:58.545Z,100680.14
2023-04-20T13:59:29.603Z,100682.52
2023-04-20T14:02:00.458Z,100679.92
2023-04-20T14:04:31.291Z,100684.27
2023-04-20T14:07:01.900Z,100686.82
2023-04-20T14:09:32.612Z,100686.73
2023-04-20T14:12:01.314Z,100683.96
2023-04-20T14:14:29.777Z,100684.64
2023-04-20T14:16:59.163Z,100686.14
2023-04-20T14:19:31.768Z,100687.80
2023-04-20T14:22:01.386Z,100688.20
2023-04-20T14:24:32.387Z,100683.59
2023-04-20T14:27:01.722Z,100683.92
2023-04-20T14:29:29.560Z,100682.16
2023-04-20T14:32:00.387Z,100685.02
2023-04-20T14:34:29.166Z,100685.91
2023-04-20T14:36:58.588Z,100684.10
2023-04-20T14:39:26.504Z,100682.94
2023-04-20T14:41:54.967Z,100683.89
2023-04-20T14:44:24.091Z,100680.38
2023-04-20T14:46:52.261Z,100679.36
2023-04-20T14:49:21.529Z,100680.63
2023-04-20T14:51:50.569Z,100679.93
2023-04-20T14:54:19.119Z,100677.34
2023-04-20T14:56:47.986Z,100680.41
2023-04-20T14:59:18.758Z,100681.34
2023-04-20T15:02:01.735Z,100681.67
2023-04-20T15:04:32.592Z,100679.08
2023-04-20T15:07:01.066Z,100681.52
2023-04-20T15:09:30.146Z,100684.50
2023-04-20T15:11:59.699Z,100681.66
2023-04-20T15:14:27.793Z,100679.14
2023-04-20T15:16:56.917Z,100675.67
2023-04-20T15:19:26.601Z,100678.87
2023-04-20T15:21:54.997Z,100675.70
2023-04-20T15:24:24.412Z,100676.65
2023-04-20T15:26:53.482Z,100678.79
2023-04-20T15:29:23.288Z,100674.53
2023-04-20T15:31:52.066Z,100677.50
2023-04-20T15:34:20.528Z,100668.74
2023-04-20T15:36:48.602Z,100668.14
2023-04-20T15:39:16.689Z,100667.84
2023-04-20T15:41:46.882Z,100665.26
2023-04-20T15:44:14.998Z,100664.33
2023-04-20T15:46:44.295Z,100662.30
2023-04-20T15:49:12.468Z,100658.08
2023-04-20T15:51:42.013Z,100662.08
2023-04-20T15:54:10.698Z,100662.96
2023-04-20T15:56:38.339Z,100656.61
2023-04-20T15:59:05.948Z,100653.44
2023-04-20T16:01:34.143Z,100653.24
2023-04-20T16:04:02.267Z,100651.55
2023-04-20T16:06:31.384Z,100647.36
2023-04-20T16:08:59.026Z,100649.48
2023-04-20T16:11:26.637Z,100650.39
2023-04-20T16:13:56.040Z,100652.55
2023-04-20T16:16:26.004Z,100651.14
2023-04-20T16:18:55.497Z,100655.16
2023-04-20T16:21:23.681Z,100652.29
2023-04-20T16:23:52.743Z,100653.70
2023-04-20T16:26:22.376Z,100653.08
2023-04-20T16:28:51.576Z,100650.70
2023-04-20T16:31:22.028Z,100652.69
2023-04-20T16:33:51.039Z,100653.18
2023-04-20T16:36:22.289Z,100652.77
2023-04-20T16:38:49.963Z,100653.99
2023-04-20T16:41:18.106Z,100654.08
2023-04-20T16:43:47.026Z,100654.73
2023-04-20T16:46:17.818Z,100658.11
2023-04-20T16:48:46.962Z,100658.81
2023-04-20T16:51:16.630Z,100656.53
2023-04-20T16:53:44.978Z,100657.95
2023-04-20T16:56:12.791Z,100664.39
2023-04-20T16:58:40.678Z,100666.08
2023-04-20T17:01:08.461Z,100663.02
2023-04-20T17:03:36.508Z,100666.21
2023-04-20T17:06:07.127Z,100667.46
2023-04-20T17:08:35.440Z,100668.64
2023-04-20T17:11:04.515Z,100673.05
2023-04-20T17:13:34.249Z,100672.83
2023-04-20T17:16:02.978Z,100677.80
2023-04-20T17:18:36.242Z,100675.40
2023-04-20T17:21:06.862Z,100680.38
2023-04-20T17:23:44.167Z,100682.27
2023-04-20T17:26:13.140Z,100683.41
2023-04-20T17:28:42.332Z,100680.44
2023-04-20T17:31:14.728Z,100682.17
2023-04-20T17:33:45.152Z,100680.73
2023-04-20T17:36:17.117Z,100686.64
2023-04-20T17:38:47.071Z,100689.13
2023-04-20T17:41:16.125Z,100690.72
2023-04-20T17:43:45.621Z,100692.08
2023-04-20T17:46:16.710Z,100693.97
2023-04-20T17:48:46.780Z,100696.56
2023-04-20T17:51:16.883Z,100696.78
2023-04-20T17:53:49.962Z,100699.36
2023-04-20T17:56:21.949Z,100698.14
2023-04-20T17:58:53.127Z,100704.13
2023-04-20T18:01:22.937Z,100700.12
2023-04-20T18:04:06.969Z,100700.40
2023-04-20T18:06:43.875Z,100703.48
2023-04-20T18:09:14.256Z,100706.33
2023-04-20T18:11:45.023Z,100711.09
2023-04-20T18:14:16.155Z,100713.58
2023-04-20T18:16:47.212Z,100716.29
2023-04-20T18:19:16.701Z,100721.61
2023-04-20T18:21:48.310Z,100725.28
2023-04-20T18:24:17.953Z,100725.77
2023-04-20T18:26:48.728Z,100729.41
2023-04-20T18:29:22.058Z,100728.23
2023-04-20T18:31:53.475Z,100726.85
2023-04-20T18:34:30.144Z,100731.02
2023-04-20T18:37:01.474Z,100733.34
2023-04-20T18:39:33.181Z,100731.93
2023-04-20T18:42:27.007Z,100729.58
2023-04-20T18:44:57.296Z,100728.48
2023-04-20T18:47:28.314Z,100733.64
2023-04-20T18:49:58.947Z,100731.81
2023-04-20T18:52:32.543Z,100735.44
2023-04-20T18:55:05.711Z,100739.42
2023-04-20T18:57:37.340Z,100740.24
2023-04-20T19:00:10.285Z,100740.73
2023-04-20T19:02:40.954Z,100744.23
2023-04-20T19:05:13.980Z,100740.63
2023-04-20T19:07:44.302Z,100744.95
2023-04-20T19:11:44.281Z,100744.90
2023-04-20T19:14:12.390Z,100745.92
2023-04-20T19:19:56.971Z,100747.49
2023-04-20T19:22:31.804Z,100747.29
2023-04-20T19:25:06.059Z,100747.56
2023-04-20T19:27:36.496Z,100750.92
2023-04-20T19:30:07.196Z,100750.97
2023-04-20T19:32:37.055Z,100752.36
2023-04-20T19:35:08.489Z,100751.52
2023-04-20T19:37:38.606Z,100753.42
2023-04-20T19:40:08.866Z,100756.98
2023-04-20T19:42:41.066Z,100756.23
2023-04-20T19:45:10.781Z,100757.98
2023-04-20T19:47:43.006Z,100759.60
2023-04-20T19:50:14.788Z,100756.73
2023-04-20T19:52:49.317Z,100762.72
2023-04-20T19:55:19.474Z,100758.59
2023-04-20T19:58:00.686Z,100761.52
2023-04-20T20:00:31.811Z,100764.22
2023-04-20T20:03:02.217Z,100762.40
2023-04-20T20:05:34.637Z,100761.55
2023-04-20T20:08:04.265Z,100761.85
2023-04-20T20:10:34.098Z,100759.21
2023-04-20T20:13:12.953Z,100759.31
2023-04-20T20:16:04.468Z,100757.08
2023-04-20T20:18:41.894Z,100755.23
2023-04-20T20:21:11.443Z,100755.66
2023-04-20T20:23:40.789Z,100757.66
2023-04-20T20:26:10.452Z,100759.38
2023-04-20T20:28:57.415Z,100753.20
2023-04-20T20:31:33.078Z,100754.67
2023-04-20T20:34:08.999Z,100754.45
2023-04-20T20:36:38.961Z,100751.98
2023-04-20T20:39:07.365Z,100753.73
2023-04-20T20:41:36.253Z,100752.17
2023-04-20T20:44:04.304Z,100756.25
2023-04-20T20:46:33.480Z,100756.25
2023-04-20T20:49:01.655Z,100757.77
2023-04-20T20:51:31.567Z,100759.02
2023-04-20T20:54:02.179Z,100762.89
2023-04-20T20:56:34.457Z,100764.36
2023-04-20T20:59:02.714Z,100764.45
2023-04-20T21:01:32.177Z,100762.30
2023-04-20T21:03:59.658Z,100765.33
2023-04-20T21:06:30.917Z,100764.93
2023-04-20T21:09:00.744Z,100764.73
2023-04-20T21:11:31.445Z,100766.95
2023-04-20T21:14:03.259Z,100766.98
2023-04-20T21:16:32.308Z,100768.39
2023-04-20T21:19:03.496Z,100766.19
2023-04-20T21:21:34.242Z,100766.95
2023-04-20T21:24:02.197Z,100768.20
2023-04-20T21:26:35.402Z,100766.03
2023-04-20T21:29:04.996Z,100765.94
2023-04-20T21:31:35.300Z,100767.77
2023-04-20T21:34:03.842Z,100770.27
2023-04-20T21:36:32.602Z,100766.63
2023-04-20T21:39:01.790Z,100768.48
2023-04-20T21:41:31.922Z,100765.40
2023-04-20T21:44:02.160Z,100767.43
2023-04-20T21:46:30.888Z,100769.26
2023-04-20T21:48:59.463Z,100767.96
2023-04-20T21:51:28.394Z,100769.60
2023-04-20T21:53:59.703Z,100767.59
2023-04-20T21:56:29.926Z,100766.73
2023-04-20T21:58:58.354Z,100766.02
2023-04-20T22:01:26.428Z,100768.04
2023-04-20T22:03:55.863Z,100771.25
2023-04-20T22:06:24.402Z,100771.14
2023-04-20T22:08:54.226Z,100767.14
2023-04-20T22:11:25.423Z,100766.48
2023-04-20T22:13:56.959Z,100769.61
2023-04-20T22:16:28.192Z,100772.79
2023-04-20T22:19:01.674Z,100772.66
2023-04-20T22:21:30.597Z,100773.34
2023-04-20T22:24:00.475Z,100769.45
2023-04-20T22:26:28.494Z,100773.44
2023-04-20T22:28:59.037Z,100773.42
2023-04-20T22:31:32.271Z,100773.83
2023-04-20T22:34:01.651Z,100769.39
2023-04-20T22:36:29.102Z,100768.21
2023-04-20T22:38:58.547Z,100775.54
2023-04-20T22:41:28.456Z,100769.36
2023-04-20T22:43:58.825Z,100768.18
2023-04-20T22:46:30.045Z,100769.82
2023-04-20T22:49:00.018Z,100769.78
2023-04-20T22:51:29.396Z,100773.90
2023-04-20T22:54:02.217Z,100771.91
2023-04-20T22:56:31.277Z,100771.47
2023-04-20T22:59:02.135Z,100769.70
2023-04-20T23:01:29.941Z,100772.73
2023-04-20T23:04:00.602Z,100772.65
2023-04-20T23:06:31.248Z,100773.20
2023-04-20T23:09:01.167Z,100775.98
2023-04-20T23:11:29.758Z,100777.65
2023-04-20T23:13:57.260Z,100777.36
2023-04-20T23:16:27.682Z,100778.45
2023-04-20T23:18:55.591Z,100778.23
2023-04-20T23:21:24.437Z,100778.12
2023-04-20T23:23:52.665Z,100780.55
2023-04-20T23:26:20.650Z,100780.80
2023-04-20T23:28:50.900Z,100780.72
2023-04-20T23:31:20.560Z,100781.30
2023-04-20T23:33:49.824Z,100782.66
2023-04-20T23:36:17.989Z,100784.44
2023-04-20T23:38:45.983Z,100778.94
2023-04-20T23:41:15.692Z,100776.58
2023-04-20T23:43:45.937Z,100773.87
2023-04-20T23:46:14.966Z,100773.38
2023-04-20T23:48:43.978Z,100771.52
2023-04-20T23:51:14.978Z,100772.15
2023-04-20T23:53:45.699Z,100774.77
2023-04-20T23:56:13.060Z,100774.35
2023-04-20T23:58:41.061Z,100778.86
